Time;durP1;ratioP1;P1;durP2;ratioP2;P2;SDS_P1;SDS_P2;PMS_P1;PMS_P2;Temp;Humidity;BMP_temperature;BMP_pressure;BME280_temperature;BME280_humidity;BME280_pressure;Samples;Min_cycle;Max_cycle;Signal;HPM_P1;HPM_P2
2022/04/06 06:58:39;;;;;;;1.88;1.00;;;;;;;8.51;100.00;98868.41;6237929;22;20031;-72
2022/04/06 07:01:05;;;;;;;3.05;0.80;;;;;;;8.53;100.00;98874.34;6253614;22;20023;-73
2022/04/06 07:03:30;;;;;;;2.45;1.13;;;;;;;8.51;100.00;98881.19;6255643;22;20012;-74
2022/04/06 07:05:58;;;;;;;3.83;1.23;;;;;;;8.39;100.00;98860.56;6280958;22;20010;-76
2022/04/06 07:08:23;;;;;;;4.68;0.95;;;;;;;8.56;100.00;98868.31;6252079;22;20004;-76
2022/04/06 07:10:49;;;;;;;6.68;1.00;;;;;;;8.66;100.00;98872.00;6281456;22;20091;-77
2022/04/06 07:13:16;;;;;;;3.28;1.00;;;;;;;8.62;100.00;98850.00;6227389;22;20008;-78
2022/04/06 07:15:43;;;;;;;9.82;1.17;;;;;;;8.91;100.00;98857.28;6232108;22;20007;-77
2022/04/06 07:18:09;;;;;;;7.88;1.38;;;;;;;9.20;100.00;98867.22;6278485;22;20422;-77
2022/04/06 07:20:35;;;;;;;2.55;0.93;;;;;;;9.30;100.00;98842.53;6279120;22;20007;-74
2022/04/06 07:23:04;;;;;;;2.05;0.50;;;;;;;9.42;100.00;98855.72;6288150;22;19999;-76
2022/04/06 07:25:31;;;;;;;2.53;0.70;;;;;;;9.47;100.00;98863.00;6260340;22;20008;-76
2022/04/06 07:27:57;;;;;;;2.20;1.25;;;;;;;9.51;99.84;98853.94;6259011;22;20003;-76
2022/04/06 07:30:23;;;;;;;5.22;0.65;;;;;;;9.38;98.51;98854.69;6280933;22;20303;-74
2022/04/06 07:32:49;;;;;;;3.88;0.63;;;;;;;9.47;98.13;98847.44;6287032;22;20030;-76
2022/04/06 07:35:16;;;;;;;3.92;0.57;;;;;;;9.40;97.57;98847.00;6284606;22;19999;-75
2022/04/06 07:37:51;;;;;;;7.53;1.10;;;;;;;9.39;97.24;98856.31;6286283;22;20027;-76
2022/04/06 07:40:18;;;;;;;2.80;0.85;;;;;;;9.40;96.92;98857.91;6230969;22;20007;-76
2022/04/06 07:42:44;;;;;;;3.20;0.70;;;;;;;9.40;96.96;98847.00;6253694;22;20014;-76
2022/04/06 07:45:18;;;;;;;2.00;0.57;;;;;;;9.47;96.77;98869.28;6281680;22;20051;-76
2022/04/06 07:47:53;;;;;;;3.33;0.70;;;;;;;9.44;95.59;98865.22;6223212;22;20030;-76
2022/04/06 07:50:20;;;;;;;2.13;0.60;;;;;;;9.40;94.13;98866.09;6282162;22;20097;-76
2022/04/06 07:52:46;;;;;;;9.20;1.00;;;;;;;9.39;95.06;98846.22;6253380;22;20318;-76
2022/04/06 07:55:12;;;;;;;5.30;2.45;;;;;;;9.45;94.40;98852.41;6254335;22;20008;-76
2022/04/06 07:57:39;;;;;;;3.65;0.70;;;;;;;9.42;93.67;98858.44;6228945;22;20022;-76
2022/04/06 08:00:12;;;;;;;2.65;0.85;;;;;;;9.37;93.36;98850.34;6254245;22;20042;-76
2022/04/06 08:02:38;;;;;;;2.53;0.68;;;;;;;9.38;94.22;98849.22;6255894;22;20056;-76
2022/04/06 08:05:05;;;;;;;7.97;0.93;;;;;;;9.40;93.87;98831.47;6255534;22;20519;-77
2022/04/06 08:07:32;;;;;;;5.72;1.02;;;;;;;9.51;93.86;98836.75;6229255;22;20097;-77
2022/04/06 08:09:57;;;;;;;4.82;1.05;;;;;;;9.70;94.30;98832.06;6255148;22;20003;-76
2022/04/06 08:12:23;;;;;;;8.05;1.13;;;;;;;9.90;92.88;98846.44;6282903;22;20004;-76
2022/04/06 08:14:50;;;;;;;2.38;0.80;;;;;;;9.91;92.45;98834.44;6283957;22;20011;-76
2022/04/06 08:17:15;;;;;;;2.75;0.60;;;;;;;9.83;91.12;98838.66;6259118;22;20011;-76
2022/04/06 08:19:41;;;;;;;4.97;0.88;;;;;;;9.61;91.90;98815.56;6228501;22;20015;-76
2022/04/06 08:22:07;;;;;;;5.40;1.42;;;;;;;9.64;92.56;98836.00;6229051;22;20033;-76
2022/04/06 08:24:33;;;;;;;6.65;0.82;;;;;;;9.77;93.55;98839.88;6253831;22;20018;-78
2022/04/06 08:26:59;;;;;;;6.13;0.73;;;;;;;9.83;93.51;98826.91;6226203;22;20012;-77
2022/04/06 08:29:24;;;;;;;7.10;1.42;;;;;;;9.78;91.03;98830.56;6251854;22;20091;-76
2022/04/06 08:31:49;;;;;;;7.07;1.02;;;;;;;9.65;91.48;98831.34;6227251;22;20007;-77
2022/04/06 08:34:15;;;;;;;12.85;1.00;;;;;;;9.68;91.91;98833.47;6229572;22;20022;-77
2022/04/06 08:36:43;;;;;;;3.15;0.55;;;;;;;9.73;91.92;98828.72;6204084;22;20393;-77
2022/04/06 08:39:09;;;;;;;5.13;1.15;;;;;;;9.87;89.84;98817.84;6226983;22;20008;-77
2022/04/06 08:41:35;;;;;;;2.17;0.50;;;;;;;9.97;85.88;98827.75;6228365;22;20012;-76
2022/04/06 08:44:01;;;;;;;7.13;0.98;;;;;;;10.09;85.82;98819.06;6203623;22;20000;-76
2022/04/06 08:46:32;;;;;;;3.30;0.90;;;;;;;10.03;84.21;98807.47;6281312;22;20050;-77
2022/04/06 08:49:00;;;;;;;9.55;1.20;;;;;;;10.24;84.01;98802.41;6281676;22;20040;-77
2022/04/06 08:51:30;;;;;;;2.70;0.70;;;;;;;10.53;82.45;98806.78;6254818;22;20002;-78
2022/04/06 08:53:57;;;;;;;3.72;0.68;;;;;;;10.80;80.51;98813.31;6254376;22;19996;-77
2022/04/06 08:56:25;;;;;;;5.28;0.85;;;;;;;10.96;79.84;98800.91;6278793;22;20030;-77
2022/04/06 08:58:50;;;;;;;5.65;0.63;;;;;;;11.00;77.98;98777.31;6241217;22;20027;-77
2022/04/06 09:01:21;;;;;;;5.03;0.85;;;;;;;11.05;78.51;98789.25;6199051;23;20019;-76
2022/04/06 09:03:46;;;;;;;2.97;0.65;;;;;;;10.97;77.77;98780.66;6197925;23;20008;-77
2022/04/06 09:06:13;;;;;;;4.25;0.73;;;;;;;10.85;78.74;98779.56;6223298;23;20008;-77
2022/04/06 09:08:48;;;;;;;5.50;0.98;;;;;;;11.09;78.36;98806.66;6257419;23;20084;-78
2022/04/06 09:11:30;;;;;;;8.88;0.95;;;;;;;11.24;78.44;98803.56;6259162;23;20000;-77
2022/04/06 09:14:02;;;;;;;5.78;0.80;;;;;;;11.15;74.94;98778.06;6231765;23;20012;-77
2022/04/06 09:16:31;;;;;;;11.32;1.08;;;;;;;11.25;75.77;98796.97;6229439;23;20008;-77
2022/04/06 09:19:11;;;;;;;8.10;1.00;;;;;;;11.25;74.66;98777.81;6201795;23;20000;-76
2022/04/06 09:21:41;;;;;;;9.65;1.00;;;;;;;11.45;74.43;98786.66;6225502;23;20008;-76
2022/04/06 09:24:20;;;;;;;5.30;0.77;;;;;;;11.60;74.36;98774.53;6195715;23;20031;-76
2022/04/06 09:26:59;;;;;;;3.60;0.80;;;;;;;11.62;72.88;98748.44;6221329;23;20004;-77
2022/04/06 09:29:27;;;;;;;4.15;1.15;;;;;;;11.97;71.66;98748.66;6198752;23;20005;-76
2022/04/06 09:32:17;;;;;;;3.22;0.90;;;;;;;11.87;70.98;98746.13;6226172;23;20011;-77
2022/04/06 09:34:43;;;;;;;2.72;0.85;;;;;;;12.00;70.95;98742.53;6217353;23;20606;-76
2022/04/06 09:37:25;;;;;;;5.57;0.77;;;;;;;12.11;69.02;98756.75;6224252;23;20003;-76
2022/04/06 09:39:52;;;;;;;7.30;0.70;;;;;;;11.93;69.70;98725.75;6219145;23;20032;-76
2022/04/06 09:42:27;;;;;;;8.75;1.17;;;;;;;11.94;70.62;98732.81;6199508;23;20331;-77
2022/04/06 09:47:51;;;;;;;6.47;0.90;;;;;;;11.74;70.96;98738.81;6225366;23;20123;-77
2022/04/06 09:50:22;;;;;;;5.72;0.90;;;;;;;11.93;70.79;98753.13;6248804;23;20577;-77
2022/04/06 09:52:52;;;;;;;7.38;1.00;;;;;;;11.79;69.80;98749.66;6224024;23;20072;-76
2022/04/06 09:55:24;;;;;;;6.22;0.55;;;;;;;11.67;70.66;98734.59;6226389;23;19996;-77
2022/04/06 09:57:57;;;;;;;2.83;0.70;;;;;;;12.49;69.90;98739.75;6225144;22;20431;-77
2022/04/06 10:00:28;;;;;;;5.97;0.68;;;;;;;12.96;66.76;98722.69;6251972;22;20023;-78
2022/04/06 10:03:10;;;;;;;4.03;1.13;;;;;;;13.41;66.81;98735.25;6279941;22;20057;-76
2022/04/06 10:05:48;;;;;;;3.55;0.77;;;;;;;13.68;63.89;98739.56;6253392;22;20030;-77
2022/04/06 10:08:18;;;;;;;4.88;1.13;;;;;;;13.53;63.76;98718.09;6250211;22;20000;-77
2022/04/06 10:10:53;;;;;;;3.83;0.63;;;;;;;13.43;64.49;98692.63;6278337;22;20003;-76
2022/04/06 10:13:19;;;;;;;5.10;0.75;;;;;;;13.61;63.44;98698.06;6275188;22;20008;-76
2022/04/06 10:15:47;;;;;;;4.05;0.60;;;;;;;13.86;61.71;98720.28;6279373;22;20000;-76
2022/04/06 10:18:13;;;;;;;4.65;1.42;;;;;;;13.75;61.10;98686.84;6228979;22;20031;-75
2022/04/06 10:20:43;;;;;;;5.78;1.20;;;;;;;13.64;62.65;98691.91;6253921;22;20430;-75
2022/04/06 10:23:55;;;;;;;4.25;0.90;;;;;;;13.89;64.76;98708.63;6255732;22;20095;-75
2022/04/06 10:26:44;;;;;;;;;;;;;;;;;;;;;
2022/04/06 10:29:10;;;;;;;8.52;1.40;;;;;;;13.94;64.23;98681.75;6267802;22;20023;-76
2022/04/06 10:31:36;;;;;;;1.95;0.65;;;;;;;14.38;62.32;98647.69;6256336;22;20011;-75
2022/04/06 10:34:32;;;;;;;5.10;0.70;;;;;;;14.22;61.37;98683.22;6252372;22;20064;-74
2022/04/06 10:37:11;;;;;;;9.38;1.10;;;;;;;13.72;63.09;98671.03;6228921;22;20015;-75
2022/04/06 10:39:55;;;;;;;2.55;0.75;;;;;;;13.72;63.97;98682.81;6282764;22;20007;-76
2022/04/06 10:42:35;;;;;;;3.40;0.80;;;;;;;13.54;62.86;98656.56;6281902;22;19996;-76
2022/04/06 10:45:05;;;;;;;4.63;0.82;;;;;;;13.49;63.88;98629.28;6253294;22;20326;-74
2022/04/06 10:47:37;;;;;;;3.95;1.35;;;;;;;13.54;62.70;98642.84;6251029;22;20109;-75
2022/04/06 10:50:13;;;;;;;4.35;1.02;;;;;;;13.56;63.19;98618.59;6281436;22;20015;-75
2022/04/06 10:52:47;;;;;;;3.55;0.63;;;;;;;13.76;63.39;98615.09;6277591;22;20007;-75
2022/04/06 10:55:23;;;;;;;1.58;0.55;;;;;;;14.22;62.50;98618.06;6229622;22;20110;-75
2022/04/06 10:58:03;;;;;;;3.80;0.50;;;;;;;14.09;62.53;98602.59;6281372;22;20003;-75
2022/04/06 11:00:41;;;;;;;;;;;;;;;;;;;;;
2022/04/06 11:03:18;;;;;;;7.82;0.75;;;;;;;14.36;61.21;98606.78;6282713;22;20023;-74
2022/04/06 11:05:53;;;;;;;5.50;0.57;;;;;;;15.33;59.83;98604.75;6254160;22;20003;-74
2022/04/06 11:11:44;;;;;;;2.25;0.60;;;;;;;19.91;47.67;98610.41;6280498;22;20338;-74
2022/04/06 11:14:47;;;;;;;1.38;0.43;;;;;;;18.97;45.76;98605.25;6280025;22;20433;-74
2022/04/06 11:17:44;;;;;;;1.85;0.40;;;;;;;17.43;48.77;98595.09;6282360;22;20017;-74
2022/04/06 11:20:19;;;;;;;1.65;0.50;;;;;;;16.08;52.09;98611.06;6259441;22;20058;-75
2022/04/06 11:22:54;;;;;;;2.75;0.60;;;;;;;15.57;53.75;98577.56;6285057;22;20000;-74
2022/04/06 11:25:26;;;;;;;1.60;0.50;;;;;;;15.11;54.16;98603.22;6287607;22;20003;-75
2022/04/06 11:28:08;;;;;;;3.50;0.65;;;;;;;15.31;54.74;98579.47;6286174;22;20000;-74
2022/04/06 11:30:43;;;;;;;5.90;1.05;;;;;;;15.73;53.38;98578.47;6258634;22;20103;-76
2022/04/06 11:33:13;;;;;;;1.95;0.70;;;;;;;15.92;53.83;98590.88;6287047;22;20028;-76
2022/04/06 11:35:44;;;;;;;7.10;0.73;;;;;;;17.74;47.42;98566.66;6286105;22;20027;-74
2022/04/06 11:38:12;;;;;;;2.25;0.70;;;;;;;18.55;45.80;98587.38;6286508;22;20003;-75
2022/04/06 11:41:07;;;;;;;;;;;;;;;;;;;;;
2022/04/06 11:43:42;;;;;;;2.05;0.50;;;;;;;17.93;47.11;98552.09;6290907;22;20019;-74
2022/04/06 11:46:13;;;;;;;3.20;0.57;;;;;;;17.92;45.35;98550.50;6303630;22;20018;-76
2022/04/06 11:48:53;;;;;;;4.75;0.70;;;;;;;16.50;48.63;98532.69;6272964;22;20022;-74
2022/04/06 11:51:56;;;;;;;;;;;;;;;;;;;;;
2022/04/06 11:54:23;;;;;;;0.98;0.50;;;;;;;16.79;50.84;98561.84;6282374;22;19995;-76
2022/04/06 12:00:10;;;;;;;1.80;0.50;;;;;;;17.42;48.74;98554.81;6143586;23;20022;-75
2022/04/06 12:04:23;;;;;;;;;;;;;;;;;;;;;
2022/04/06 12:06:42;;;;;;;;;;;;;;;;;;;;;
2022/04/06 12:09:23;;;;;;;;;;;;;;;;;;;;;
2022/04/06 12:11:55;;;;;;;3.60;0.80;;;;;;;25.05;32.03;98546.34;6238462;22;20386;-76
2022/04/06 12:17:45;;;;;;;;;;;;;;;;;;;;;
2022/04/06 12:20:38;;;;;;;;;;;;;;;;;;;;;
2022/04/06 12:23:15;;;;;;;;;;;;;;;;;;;;;
2022/04/06 12:25:50;;;;;;;2.17;0.50;;;;;;;23.76;33.98;98512.13;6256135;22;20041;-74
2022/04/06 12:28:56;;;;;;;;;;;;;;;;;;;;;
2022/04/06 12:31:48;;;;;;;1.52;0.40;;;;;;;22.14;33.52;98479.25;6282050;22;20023;-75
2022/04/06 12:35:20;;;;;;;;;;;;;;;;;;;;;
2022/04/06 12:38:17;;;;;;;;;;;;;;;;;;;;;
2022/04/06 12:41:11;;;;;;;3.83;0.80;;;;;;;27.69;24.76;98453.00;6156406;23;20029;-74
2022/04/06 12:44:09;;;;;;;2.58;0.65;;;;;;;24.56;28.38;98440.81;6156619;23;20072;-74
2022/04/06 12:46:51;;;;;;;3.60;0.40;;;;;;;21.76;33.63;98464.75;6185857;23;20013;-74
2022/04/06 12:49:25;;;;;;;2.83;0.65;;;;;;;20.21;36.43;98448.72;6229572;22;20045;-75
2022/04/06 12:52:09;;;;;;;1.05;0.40;;;;;;;18.60;40.60;98445.94;6280396;22;20014;-75
2022/04/06 12:54:40;;;;;;;8.05;0.85;;;;;;;17.27;48.27;98438.47;6280590;22;20053;-76
2022/04/06 12:57:18;;;;;;;3.83;0.90;;;;;;;14.78;61.28;98427.94;6253775;22;20003;-75
2022/04/06 13:00:18;;;;;;;5.20;1.08;;;;;;;13.24;69.49;98412.19;6234742;22;20019;-76
2022/04/06 13:02:55;;;;;;;9.98;1.25;;;;;;;12.37;71.75;98427.91;6224316;23;20012;-78
2022/04/06 13:05:21;;;;;;;5.35;1.35;;;;;;;11.89;77.83;98426.19;6252875;23;20004;-80
2022/04/06 13:07:51;;;;;;;7.63;1.10;;;;;;;11.57;81.20;98413.81;6252737;23;20065;-79
2022/04/06 13:10:40;;;;;;;;;;;;;;;;;;;;;
2022/04/06 13:13:09;;;;;;;6.00;1.20;;;;;;;10.90;83.43;98427.50;6250691;23;20035;-75
2022/04/06 13:15:36;;;;;;;9.73;1.20;;;;;;;10.53;84.27;98432.38;6252001;23;20007;-75
2022/04/06 13:18:29;;;;;;;5.28;1.15;;;;;;;10.14;86.45;98433.88;6224235;23;20035;-77
2022/04/06 13:20:55;;;;;;;8.50;1.00;;;;;;;9.92;87.18;98427.31;6225473;23;20031;-76
2022/04/06 13:23:26;;;;;;;5.85;1.00;;;;;;;9.94;87.98;98403.25;6224499;23;20489;-74
2022/04/06 13:26:02;;;;;;;9.63;1.33;;;;;;;10.33;87.38;98439.13;6253001;23;20078;-75
2022/04/06 13:28:40;;;;;;;7.55;1.65;;;;;;;11.13;87.66;98419.22;6221746;23;20011;-75
2022/04/06 13:31:06;;;;;;;11.55;1.80;;;;;;;11.21;84.82;98432.09;6255712;23;20012;-75
2022/04/06 13:33:34;;;;;;;10.75;1.50;;;;;;;10.85;87.26;98424.94;6253964;23;20031;-75
2022/04/06 13:36:08;;;;;;;13.10;1.67;;;;;;;10.85;88.91;98426.84;6226577;23;20015;-77
2022/04/06 13:38:43;;;;;;;14.80;2.00;;;;;;;11.47;92.36;98434.06;6229176;23;20004;-79
2022/04/06 13:41:11;;;;;;;8.10;1.27;;;;;;;11.37;89.12;98407.81;6227786;23;20090;-77
2022/04/06 13:43:37;;;;;;;5.63;1.10;;;;;;;10.95;90.17;98397.28;6222603;23;20008;-77
2022/04/06 13:46:21;;;;;;;9.48;1.30;;;;;;;10.73;91.64;98400.94;6227862;23;20061;-77
2022/04/06 13:48:56;;;;;;;12.98;1.90;;;;;;;10.70;92.40;98389.81;6204775;23;20000;-76
2022/04/06 13:51:35;;;;;;;;;;;;;;;;;;;;;
2022/04/06 13:56:58;;;;;;;7.38;1.27;;;;;;;11.02;89.99;98363.19;6191384;23;20009;-76
2022/04/06 13:59:31;;;;;;;8.77;1.23;;;;;;;10.57;90.48;98364.19;6223049;22;20335;-75
2022/04/06 14:02:02;;;;;;;11.70;1.55;;;;;;;10.19;91.87;98381.88;6220739;23;20008;-74
2022/04/06 14:04:32;;;;;;;9.30;0.73;;;;;;;9.43;89.83;98420.81;6199990;23;20071;-80
2022/04/06 14:06:58;;;;;;;3.58;0.80;;;;;;;9.58;95.07;98400.56;6223393;23;20004;-78
2022/04/06 14:09:23;;;;;;;3.60;0.88;;;;;;;12.02;95.94;98384.16;6222584;23;20096;-77
2022/04/06 14:11:57;;;;;;;4.43;0.95;;;;;;;11.79;90.90;98371.75;6226272;23;20004;-77
2022/04/06 14:14:25;;;;;;;4.13;1.20;;;;;;;10.98;92.83;98374.78;6250603;23;20084;-77
2022/04/06 14:16:55;;;;;;;4.32;0.90;;;;;;;10.61;96.15;98376.91;6223498;23;20004;-75
2022/04/06 14:19:23;;;;;;;7.55;1.33;;;;;;;10.50;98.42;98381.06;6250793;23;20083;-78
2022/04/06 14:21:49;;;;;;;10.45;1.85;;;;;;;10.30;99.20;98376.94;6246504;23;20000;-75
2022/04/06 14:24:17;;;;;;;4.47;1.27;;;;;;;10.12;100.00;98359.66;6222384;23;20039;-76
2022/04/06 14:26:49;;;;;;;2.38;1.00;;;;;;;10.05;100.00;98356.56;6195911;23;20015;-76
2022/04/06 14:29:15;;;;;;;12.13;1.20;;;;;;;9.98;100.00;98376.13;6250397;23;20684;-77
2022/04/06 14:31:43;;;;;;;10.75;1.67;;;;;;;9.92;100.00;98382.81;6222543;23;20014;-77
2022/04/06 14:34:23;;;;;;;3.42;0.90;;;;;;;9.77;100.00;98354.00;6198386;23;20068;-78
2022/04/06 14:36:49;;;;;;;8.35;1.15;;;;;;;9.75;100.00;98361.66;6226415;23;20032;-77
2022/04/06 14:39:18;;;;;;;8.38;1.23;;;;;;;9.82;100.00;98356.56;6197507;23;20004;-78
2022/04/06 14:41:51;;;;;;;10.25;1.00;;;;;;;10.11;100.00;98352.56;6246965;23;20469;-78
2022/04/06 14:44:16;;;;;;;4.55;1.02;;;;;;;10.77;100.00;98352.69;6226412;23;20004;-76
2022/04/06 14:46:42;;;;;;;3.80;1.15;;;;;;;10.72;100.00;98341.09;6251231;23;20004;-77
2022/04/06 14:49:07;;;;;;;11.45;1.10;;;;;;;10.47;100.00;98332.53;6250727;23;20007;-77
2022/04/06 14:51:41;;;;;;;2.55;0.80;;;;;;;10.24;100.00;98340.75;6251145;23;20004;-77
2022/04/06 14:54:10;;;;;;;10.63;2.08;;;;;;;10.26;100.00;98337.69;6225461;23;20066;-79
2022/04/06 14:56:38;;;;;;;10.57;1.48;;;;;;;11.98;100.00;98324.88;6224239;23;20000;-78
2022/04/06 14:59:06;;;;;;;10.45;1.55;;;;;;;13.50;100.00;98326.13;6260102;22;20016;-77
2022/04/06 15:01:31;;;;;;;9.02;1.95;;;;;;;14.25;100.00;98326.00;6280454;22;20007;-77
2022/04/06 15:03:57;;;;;;;4.38;1.20;;;;;;;14.23;93.78;98302.72;6253078;22;20427;-77
2022/04/06 15:06:28;;;;;;;6.68;1.17;;;;;;;13.26;95.11;98313.84;6250492;22;20015;-78
2022/04/06 15:09:18;;;;;;;11.30;1.17;;;;;;;12.54;96.81;98320.13;6253783;22;20078;-77
2022/04/06 15:11:44;;;;;;;7.93;1.10;;;;;;;12.04;99.12;98301.63;6252218;22;20008;-78
2022/04/06 15:14:09;;;;;;;5.53;1.10;;;;;;;11.61;100.00;98302.50;6228923;22;20015;-78
2022/04/06 15:16:40;;;;;;;10.02;1.60;;;;;;;11.19;100.00;98319.44;6279783;22;20004;-77
2022/04/06 15:19:09;;;;;;;5.65;0.95;;;;;;;10.78;100.00;98309.75;6226656;22;20004;-77
2022/04/06 15:21:43;;;;;;;8.57;1.67;;;;;;;10.46;100.00;98298.91;6226351;22;20008;-78
2022/04/06 15:24:16;;;;;;;2.55;0.70;;;;;;;10.90;100.00;98290.78;6217009;22;20014;-78
2022/04/06 15:26:42;;;;;;;6.65;1.30;;;;;;;14.43;100.00;98282.56;6253342;22;20010;-76
2022/04/06 15:32:13;;;;;;;6.50;1.48;;;;;;;17.60;87.54;98364.56;6259647;22;20003;-76
2022/04/06 15:37:32;;;;;;;7.03;0.85;;;;;;;16.38;85.08;98293.56;6277916;22;19917;-77
2022/04/06 15:40:06;;;;;;;9.75;1.48;;;;;;;14.37;89.36;98294.97;6228761;22;20071;-77
2022/04/06 15:42:34;;;;;;;4.10;1.10;;;;;;;13.04;93.71;98269.16;6257834;22;20010;-76
2022/04/06 15:45:05;;;;;;;7.78;1.35;;;;;;;12.19;95.96;98278.38;6258738;22;20068;-77
2022/04/06 15:47:38;;;;;;;12.18;1.55;;;;;;;13.35;100.00;98251.47;6257736;22;20010;-76
2022/04/06 15:50:25;;;;;;;11.05;1.63;;;;;;;13.46;94.11;98267.53;6207570;22;20034;-76
2022/04/06 15:52:59;;;;;;;3.72;0.77;;;;;;;12.81;94.63;98260.44;6234638;22;20012;-77
2022/04/06 15:55:25;;;;;;;9.27;1.67;;;;;;;14.86;95.76;98254.81;6209031;22;20008;-76
2022/04/06 15:57:54;;;;;;;9.63;1.55;;;;;;;15.82;88.32;98262.25;6232646;22;20008;-77
2022/04/06 16:00:20;;;;;;;7.70;1.40;;;;;;;16.13;85.92;98255.16;5573624;22;15256584;-74
2022/04/06 16:02:47;;;;;;;10.25;1.65;;;;;;;16.69;86.25;98253.28;6260911;22;20016;-76
2022/04/06 16:05:15;;;;;;;16.83;2.63;;;;;;;15.72;82.50;98248.97;6209675;22;20011;-76
2022/04/06 16:07:43;;;;;;;6.22;1.25;;;;;;;13.88;85.09;98250.94;6234704;22;20473;-77
2022/04/06 16:10:09;;;;;;;8.38;1.40;;;;;;;12.81;87.51;98248.69;6234773;22;20097;-78
2022/04/06 16:12:46;;;;;;;4.78;0.95;;;;;;;12.19;91.71;98256.44;6289085;22;20007;-77
2022/04/06 16:15:14;;;;;;;7.63;1.50;;;;;;;11.95;92.27;98248.84;6260822;22;20003;-79
2022/04/06 16:17:40;;;;;;;8.80;1.27;;;;;;;11.86;92.25;98233.19;6234421;22;20075;-77
2022/04/06 16:20:56;;;;;;;4.38;0.93;;;;;;;12.37;93.44;98240.75;6259802;22;20008;-76
2022/04/06 16:23:26;;;;;;;12.93;1.52;;;;;;;12.97;92.58;98214.00;6249758;22;20063;-76
2022/04/06 16:25:52;;;;;;;15.27;2.10;;;;;;;13.13;90.32;98216.13;6287441;22;19999;-76
2022/04/06 16:28:28;;;;;;;8.23;1.50;;;;;;;13.30;86.81;98215.97;6284439;22;20000;-77
2022/04/06 16:31:07;;;;;;;9.48;2.05;;;;;;;12.63;88.17;98235.09;6238451;22;20007;-76
2022/04/06 16:34:15;;;;;;;10.73;1.77;;;;;;;12.03;91.21;98221.41;6270865;22;20665;-76
2022/04/06 16:37:04;;;;;;;4.78;1.27;;;;;;;11.69;91.37;98208.63;6287488;22;20003;-76
2022/04/06 16:39:53;;;;;;;15.05;2.53;;;;;;;11.40;91.24;98214.81;6254138;22;20067;-79
2022/04/06 16:42:21;;;;;;;10.65;2.03;;;;;;;11.21;91.40;98206.97;6253222;23;20016;-77
2022/04/06 16:44:47;;;;;;;10.20;1.77;;;;;;;10.96;91.00;98196.53;6253474;23;20040;-76
2022/04/06 16:47:20;;;;;;;16.02;2.25;;;;;;;10.69;91.63;98202.31;6229782;23;20090;-77
2022/04/06 16:52:49;;;;;;;14.07;1.60;;;;;;;10.30;94.45;98215.75;6254726;23;20067;-77
2022/04/06 16:55:25;;;;;;;14.10;1.88;;;;;;;9.91;95.86;98218.19;6251397;23;20004;-77
2022/04/06 16:57:51;;;;;;;13.52;1.92;;;;;;;9.62;97.39;98188.69;6253732;23;20014;-77
2022/04/06 17:00:22;;;;;;;9.18;1.15;;;;;;;9.73;99.31;98205.63;6255570;23;20008;-77
2022/04/06 17:02:50;;;;;;;13.55;1.50;;;;;;;9.79;99.69;98209.81;6255612;23;20007;-77
2022/04/06 17:05:18;;;;;;;13.32;2.60;;;;;;;9.71;99.49;98196.91;6252797;23;20008;-76
2022/04/06 17:07:59;;;;;;;9.27;1.80;;;;;;;9.60;98.87;98191.75;6253811;23;20004;-78
2022/04/06 17:10:28;;;;;;;15.00;2.65;;;;;;;9.62;100.00;98199.59;6232861;23;20004;-77
2022/04/06 17:12:53;;;;;;;20.92;2.05;;;;;;;9.56;100.00;98179.03;6250034;23;20031;-76
2022/04/06 17:15:21;;;;;;;13.15;2.63;;;;;;;9.59;100.00;98213.88;6256227;23;20323;-78
2022/04/06 17:17:49;;;;;;;23.15;2.83;;;;;;;9.64;100.00;98172.00;6231430;23;20015;-79
2022/04/06 17:20:17;;;;;;;13.90;2.30;;;;;;;9.88;100.00;98194.25;6255927;23;20026;-79
2022/04/06 17:22:46;;;;;;;18.98;3.85;;;;;;;9.83;99.50;98215.44;6253982;23;20066;-78
2022/04/06 17:25:13;;;;;;;11.43;2.13;;;;;;;9.75;99.78;98203.38;6253942;23;20138;-79
2022/04/06 17:27:41;;;;;;;19.60;2.72;;;;;;;9.66;100.00;98188.88;6257219;23;20011;-78
2022/04/06 17:30:12;;;;;;;8.48;1.83;;;;;;;9.46;99.37;98165.69;6251810;23;20008;-78
2022/04/06 17:32:38;;;;;;;9.30;1.85;;;;;;;9.36;100.00;98169.47;6229289;23;20403;-77
2022/04/06 17:35:04;;;;;;;13.63;2.00;;;;;;;9.39;100.00;98185.25;6228635;23;20012;-79
2022/04/06 17:37:30;;;;;;;15.18;2.05;;;;;;;9.28;100.00;98168.31;6255409;23;20004;-77
2022/04/06 17:39:56;;;;;;;24.92;3.05;;;;;;;9.33;100.00;98181.00;6253340;22;20081;-76
2022/04/06 17:42:26;;;;;;;14.73;2.50;;;;;;;9.27;100.00;98183.06;6254513;23;20004;-76
2022/04/06 17:44:51;;;;;;;15.45;2.38;;;;;;;9.23;100.00;98182.91;6253835;23;20008;-76
2022/04/06 17:47:20;;;;;;;16.85;2.92;;;;;;;9.13;100.00;98158.63;6253006;23;20394;-77
2022/04/06 17:49:45;;;;;;;11.65;1.85;;;;;;;9.16;100.00;98160.72;6255200;23;20023;-76
2022/04/06 17:52:11;;;;;;;17.27;2.40;;;;;;;9.08;100.00;98172.34;6253163;23;20004;-77
2022/04/06 17:54:39;;;;;;;17.90;2.38;;;;;;;8.98;100.00;98159.81;6254059;23;20087;-77
2022/04/06 17:57:06;;;;;;;16.98;1.92;;;;;;;8.77;100.00;98164.94;6222366;22;20027;-74
2022/04/06 17:59:33;;;;;;;12.93;2.72;;;;;;;8.83;100.00;98174.59;6256492;22;20008;-74
2022/04/06 18:01:58;;;;;;;21.00;2.65;;;;;;;8.75;100.00;98175.34;6256826;22;20004;-73
2022/04/06 18:04:24;;;;;;;24.58;2.42;;;;;;;8.71;100.00;98168.91;6256678;22;20018;-74
2022/04/06 18:06:49;;;;;;;15.05;2.15;;;;;;;8.60;100.00;98192.03;6232398;22;20007;-75
2022/04/06 18:09:15;;;;;;;19.20;1.90;;;;;;;8.43;100.00;98184.50;6258376;22;19999;-75
2022/04/06 18:14:28;;;;;;;12.55;1.48;;;;;;;8.21;100.00;98210.56;6283409;22;20026;-76
2022/04/06 18:16:54;;;;;;;5.85;1.75;;;;;;;8.12;100.00;98171.53;6231371;22;20022;-76
2022/04/06 18:19:20;;;;;;;14.15;1.60;;;;;;;8.19;100.00;98177.38;6257220;22;20007;-74
2022/04/06 18:21:46;;;;;;;7.50;0.85;;;;;;;8.03;100.00;98155.94;6253378;22;20007;-73
2022/04/06 18:24:12;;;;;;;14.48;1.27;;;;;;;7.96;100.00;98152.81;6228641;22;20016;-73
2022/04/06 18:26:38;;;;;;;13.38;1.20;;;;;;;8.02;100.00;98169.84;6254585;22;20089;-74
2022/04/06 18:29:45;;;;;;;7.93;0.93;;;;;;;7.96;100.00;98158.28;6256406;22;20083;-74
2022/04/06 18:32:24;;;;;;;4.03;0.88;;;;;;;7.76;100.00;98154.03;6154002;22;20871;-73
2022/04/06 18:34:50;;;;;;;11.43;1.20;;;;;;;7.43;100.00;98150.59;6233559;22;20008;-74
2022/04/06 18:37:16;;;;;;;8.40;1.30;;;;;;;7.38;100.00;98156.94;6257532;22;20015;-74
2022/04/06 18:39:41;;;;;;;8.73;1.23;;;;;;;7.26;100.00;98151.19;6228576;22;20023;-73
2022/04/06 18:42:16;;;;;;;10.23;1.20;;;;;;;7.18;100.00;98154.59;6285437;22;20020;-76
2022/04/06 18:44:42;;;;;;;10.18;1.25;;;;;;;7.11;100.00;98144.94;6283978;22;19999;-73
2022/04/06 18:47:07;;;;;;;9.73;1.23;;;;;;;7.05;100.00;98135.22;6230942;22;20309;-75
2022/04/06 18:49:59;;;;;;;9.50;0.98;;;;;;;7.06;100.00;98142.28;6229848;22;20064;-74
2022/04/06 18:52:34;;;;;;;7.30;1.38;;;;;;;6.99;100.00;98136.44;6266047;22;20054;-76
2022/04/06 18:55:01;;;;;;;17.70;1.55;;;;;;;6.88;100.00;98135.81;6257141;22;20022;-74
2022/04/06 18:57:49;;;;;;;;;;;;;;;;;;;;;
2022/04/06 19:00:20;;;;;;;6.88;1.17;;;;;;;6.87;100.00;98127.97;6283104;22;20054;-74
2022/04/06 19:02:56;;;;;;;11.05;1.73;;;;;;;6.95;100.00;98152.53;6257747;22;20016;-73
2022/04/06 19:05:27;;;;;;;15.15;1.98;;;;;;;7.07;100.00;98148.56;6254909;22;20003;-73
2022/04/06 19:07:56;;;;;;;12.88;1.77;;;;;;;7.10;100.00;98165.06;6255924;22;20089;-72
2022/04/06 19:10:35;;;;;;;;;;;;;;;;;;;;;
2022/04/06 19:13:06;;;;;;;5.78;1.33;;;;;;;7.27;100.00;98147.34;6256876;22;20031;-75
2022/04/06 19:15:58;;;;;;;10.13;1.20;;;;;;;7.20;100.00;98119.75;6257429;22;20026;-76
2022/04/06 19:18:36;;;;;;;;;;;;;;;;;;;;;
2022/04/06 19:21:12;;;;;;;;;;;;;;;;;;;;;
2022/04/06 19:28:22;;;;;;;;;;;;;;;;;;;;;
2022/04/06 19:31:14;;;;;;;;;;;;;;;;;;;;;
2022/04/06 19:37:48;;;;;;;8.55;1.45;;;;;;;7.11;100.00;98092.47;6134550;23;20013;-75
2022/04/06 19:47:52;;;;;;;;;;;;;;;;;;;;;
2022/04/06 23:02:51;;;;;;;18.48;3.00;;;;;;;7.55;100.00;97889.00;6231083;22;20059;-76
2022/04/06 23:05:19;;;;;;;23.17;3.33;;;;;;;7.53;100.00;97874.94;6284681;22;20012;-75
2022/04/06 23:07:46;;;;;;;24.25;2.63;;;;;;;7.50;100.00;97858.13;6235840;22;20007;-73
2022/04/06 23:10:13;;;;;;;26.50;3.22;;;;;;;7.54;100.00;97849.34;6232554;22;20007;-73
2022/04/06 23:12:42;;;;;;;24.20;3.08;;;;;;;7.51;100.00;97859.72;6233692;22;20007;-77
2022/04/06 23:15:09;;;;;;;29.63;3.83;;;;;;;7.41;100.00;97843.66;6260275;22;20004;-79
2022/04/06 23:17:39;;;;;;;30.15;3.28;;;;;;;7.37;100.00;97815.47;6286005;22;20031;-77
2022/04/06 23:29:29;;;;;;;29.83;3.88;;;;;;;7.36;100.00;97797.56;6257158;22;20024;-76